Time;durP1;ratioP1;P1;durP2;ratioP2;P2;SDS_P1;SDS_P2;PMS_P1;PMS_P2;Temp;Humidity;BMP_temperature;BMP_pressure;BME280_temperature;BME280_humidity;BME280_pressure;Samples;Min_cycle;Max_cycle;Signal;HPM_P1;HPM_P2
2022/05/02 00:01:08;;;;;;;4.90;2.40;;;18.40;99.90;;;;;;5052767;28;20200;-91
2022/05/02 00:03:40;;;;;;;5.17;2.20;;;18.30;99.90;;;;;;5051137;28;20219;-91
2022/05/02 00:06:11;;;;;;;6.47;2.97;;;17.90;99.90;;;;;;5054411;28;20272;-92
2022/05/02 00:08:51;;;;;;;5.43;1.93;;;17.90;99.90;;;;;;5054921;28;20184;-90
2022/05/02 00:11:22;;;;;;;5.67;2.30;;;18.00;99.90;;;;;;5053382;28;20209;-90
2022/05/02 00:13:56;;;;;;;5.17;2.33;;;17.60;99.90;;;;;;5052339;28;20216;-91
2022/05/02 00:16:30;;;;;;;8.23;2.63;;;17.60;99.90;;;;;;5050286;28;20251;-90
2022/05/02 00:19:09;;;;;;;5.00;2.00;;;17.60;99.90;;;;;;5051402;28;20228;-92
2022/05/02 00:21:40;;;;;;;6.10;2.37;;;17.70;99.90;;;;;;5053174;28;20209;-91
2022/05/02 00:24:12;;;;;;;5.93;2.07;;;17.50;99.90;;;;;;5049610;28;20292;-91
2022/05/02 00:26:46;;;;;;;8.77;2.77;;;17.30;99.90;;;;;;5041650;28;20198;-91
2022/05/02 00:29:21;;;;;;;6.87;2.47;;;17.30;99.90;;;;;;5036462;28;20212;-91
2022/05/02 00:31:58;;;;;;;5.37;2.13;;;17.40;99.90;;;;;;5037717;28;20193;-91
2022/05/02 00:34:34;;;;;;;4.30;1.93;;;17.30;99.90;;;;;;5037846;28;20212;-90
2022/05/02 00:37:07;;;;;;;3.87;2.00;;;17.20;99.90;;;;;;5034457;28;20240;-90
2022/05/02 00:39:38;;;;;;;5.50;2.07;;;17.20;99.90;;;;;;5035425;28;20217;-91
2022/05/02 00:45:00;;;;;;;7.33;2.30;;;17.20;99.90;;;;;;5072268;28;20230;-90
2022/05/02 00:47:33;;;;;;;5.97;2.23;;;17.10;99.90;;;;;;5064966;28;20215;-90
2022/05/02 00:50:05;;;;;;;7.30;2.20;;;17.10;99.90;;;;;;5069882;28;20232;-90
2022/05/02 00:52:37;;;;;;;4.93;2.20;;;17.20;99.90;;;;;;5071442;28;20661;-91
2022/05/02 00:55:10;;;;;;;5.23;2.20;;;17.20;99.90;;;;;;5072337;28;20208;-91
2022/05/02 00:57:44;;;;;;;4.67;2.03;;;17.00;99.90;;;;;;5072188;28;20208;-91
2022/05/02 01:00:20;;;;;;;8.40;2.47;;;17.00;99.90;;;;;;5072061;28;20235;-91
2022/05/02 01:02:52;;;;;;;7.30;2.50;;;16.90;99.90;;;;;;5070688;28;20234;-91
2022/05/02 01:05:26;;;;;;;3.37;1.90;;;16.90;99.90;;;;;;5075927;28;20268;-89
2022/05/02 01:07:56;;;;;;;5.17;2.20;;;16.70;99.90;;;;;;5075651;28;20196;-91
2022/05/02 01:10:30;;;;;;;4.27;2.00;;;16.70;99.90;;;;;;5075149;28;20239;-90
2022/05/02 01:13:01;;;;;;;4.17;1.80;;;16.70;99.90;;;;;;5071705;28;20212;-91
2022/05/02 01:15:37;;;;;;;4.43;2.00;;;16.70;99.90;;;;;;5069198;28;20208;-92
2022/05/02 01:18:09;;;;;;;5.67;2.07;;;16.60;99.90;;;;;;5070050;28;20204;-91
2022/05/02 01:20:50;;;;;;;6.40;2.20;;;16.60;99.90;;;;;;5067992;28;20227;-91
2022/05/02 01:23:21;;;;;;;5.07;1.93;;;16.60;99.90;;;;;;5069938;28;20223;-91
2022/05/02 01:25:55;;;;;;;4.90;2.20;;;16.50;99.90;;;;;;5068182;28;20216;-92
2022/05/02 01:28:28;;;;;;;3.43;2.07;;;16.50;99.90;;;;;;5050030;28;20242;-91
2022/05/02 01:31:05;;;;;;;5.17;2.10;;;16.30;99.90;;;;;;5049852;28;20213;-91
2022/05/02 01:33:36;;;;;;;5.13;2.23;;;16.40;99.90;;;;;;5049877;28;20231;-91
2022/05/02 01:49:37;;;;;;;5.20;1.90;;;16.20;99.90;;;;;;6119001;22;4208158;-91
2022/05/02 01:52:10;;;;;;;5.60;1.90;;;16.00;99.90;;;;;;6274335;23;20167;-91
2022/05/02 01:54:43;;;;;;;8.03;2.37;;;15.80;99.90;;;;;;6273352;22;20186;-92
2022/05/02 01:57:22;;;;;;;4.00;2.00;;;15.80;99.90;;;;;;6277204;22;20226;-92
2022/05/02 01:59:55;;;;;;;6.30;2.20;;;15.70;99.90;;;;;;6278103;22;20159;-92
2022/05/02 02:02:26;;;;;;;3.13;1.93;;;15.70;99.90;;;;;;6277791;22;20260;-91
2022/05/02 02:07:54;;;;;;;4.77;2.13;;;15.50;99.90;;;;;;6275142;22;20190;-91
2022/05/02 02:10:28;;;;;;;5.87;2.17;;;15.50;99.90;;;;;;6275912;22;20998;-91
2022/05/02 02:13:01;;;;;;;6.03;2.40;;;15.40;99.90;;;;;;6275978;22;20175;-91
2022/05/02 02:15:34;;;;;;;7.30;2.70;;;15.30;99.90;;;;;;6274181;22;20175;-92
2022/05/02 02:18:06;;;;;;;4.97;2.57;;;15.30;99.90;;;;;;6274553;22;20213;-91
2022/05/02 02:20:43;;;;;;;5.90;2.13;;;15.20;99.90;;;;;;6275430;23;20179;-92
2022/05/02 02:23:18;;;;;;;5.70;2.17;;;15.10;99.90;;;;;;6274919;22;20645;-91
2022/05/02 02:25:50;;;;;;;3.70;2.00;;;15.10;99.90;;;;;;6274836;23;20180;-91
2022/05/02 02:28:24;;;;;;;5.13;2.10;;;15.00;99.90;;;;;;6273258;23;20194;-91
2022/05/02 02:30:57;;;;;;;3.80;1.57;;;15.00;99.90;;;;;;6274653;22;20163;-91
2022/05/02 02:33:28;;;;;;;3.87;2.03;;;14.90;99.90;;;;;;6275229;22;20554;-91
2022/05/02 02:36:06;;;;;;;4.33;1.80;;;14.80;99.90;;;;;;6274746;22;20197;-91
2022/05/02 02:38:40;;;;;;;5.07;2.03;;;14.70;99.90;;;;;;6275034;23;20214;-92
2022/05/02 02:44:17;;;;;;;8.73;2.53;;;14.60;99.90;;;;;;6238383;22;20209;-90
2022/05/02 03:08:09;;;;;;;4.03;2.00;;;14.00;99.90;;;;;;6278620;22;20219;-92
2022/05/02 03:10:44;;;;;;;8.13;2.80;;;13.90;99.90;;;;;;6268213;23;20190;-91
2022/05/02 03:13:15;;;;;;;4.43;2.00;;;13.90;99.90;;;;;;6270827;23;20171;-90
2022/05/02 03:15:47;;;;;;;3.47;2.20;;;13.80;99.90;;;;;;6273324;22;20194;-91
2022/05/02 03:18:20;;;;;;;4.43;1.93;;;13.70;99.90;;;;;;6275795;22;20278;-91
2022/05/02 03:20:54;;;;;;;6.73;2.17;;;13.70;99.90;;;;;;6270999;22;20202;-91
2022/05/02 03:23:32;;;;;;;5.33;2.47;;;13.60;99.90;;;;;;6241032;23;20164;-91
2022/05/02 03:26:06;;;;;;;4.97;2.47;;;13.60;99.90;;;;;;6264058;23;20230;-91
2022/05/02 03:28:47;;;;;;;6.10;2.40;;;13.50;99.90;;;;;;6214770;23;20203;-90
2022/05/02 03:31:20;;;;;;;4.83;2.23;;;13.50;99.90;;;;;;6246194;23;20498;-91
2022/05/02 03:33:53;;;;;;;3.80;2.13;;;13.40;99.90;;;;;;6268656;22;20176;-91
2022/05/02 03:36:32;;;;;;;7.93;2.27;;;13.40;99.90;;;;;;6265185;23;20461;-92
2022/05/02 03:39:07;;;;;;;6.20;2.63;;;13.30;99.90;;;;;;6237580;23;20206;-91
2022/05/02 03:41:39;;;;;;;7.30;2.73;;;13.30;99.90;;;;;;6267067;23;20168;-92
2022/05/02 03:44:11;;;;;;;5.30;2.20;;;13.20;99.90;;;;;;6266502;23;20204;-91
2022/05/02 03:49:31;;;;;;;6.20;2.97;;;13.10;99.90;;;;;;6263987;23;20179;-91
2022/05/02 03:52:04;;;;;;;4.90;2.90;;;13.00;99.90;;;;;;6266084;23;20175;-91
2022/05/02 03:54:37;;;;;;;8.17;4.07;;;13.00;99.90;;;;;;6266147;23;20183;-91
2022/05/02 03:57:13;;;;;;;11.67;6.40;;;13.00;99.90;;;;;;6266453;23;20179;-91
2022/05/02 03:59:47;;;;;;;18.80;11.43;;;12.90;99.90;;;;;;6267021;23;20191;-91
2022/05/02 04:02:19;;;;;;;15.30;9.10;;;12.90;99.90;;;;;;6257856;23;20206;-91
2022/05/02 04:04:50;;;;;;;16.97;10.77;;;12.80;99.90;;;;;;6258051;23;20245;-92
2022/05/02 04:07:22;;;;;;;11.27;7.80;;;12.80;99.90;;;;;;6263782;23;20178;-94
2022/05/02 04:12:42;;;;;;;11.77;7.00;;;12.70;99.90;;;;;;6259065;22;20238;-91
2022/05/02 04:15:15;;;;;;;10.57;5.87;;;12.70;99.90;;;;;;6264175;23;20656;-91
2022/05/02 04:17:47;;;;;;;9.50;5.50;;;12.70;99.90;;;;;;6228172;23;20174;-91
2022/05/02 04:20:19;;;;;;;8.00;5.30;;;12.70;99.90;;;;;;6253856;23;20214;-92
2022/05/02 04:22:50;;;;;;;13.80;6.07;;;12.70;99.90;;;;;;6254329;23;20175;-91
2022/05/02 04:25:22;;;;;;;10.00;5.77;;;12.60;99.90;;;;;;6249804;23;20195;-91
2022/05/02 04:27:55;;;;;;;11.87;6.17;;;12.60;99.90;;;;;;6248607;23;20534;-91
2022/05/02 04:30:28;;;;;;;8.07;4.47;;;12.60;99.90;;;;;;6250302;23;20180;-90
2022/05/02 04:32:59;;;;;;;6.30;3.90;;;12.60;99.90;;;;;;6249561;23;20195;-90
2022/05/02 04:35:30;;;;;;;6.33;4.03;;;12.60;99.90;;;;;;6250041;23;20180;-90
2022/05/02 04:38:01;;;;;;;9.20;5.03;;;12.60;99.90;;;;;;6249560;23;20180;-91
2022/05/02 04:40:32;;;;;;;12.50;7.40;;;12.50;99.90;;;;;;6250985;23;20168;-91
2022/05/02 04:43:05;;;;;;;12.73;8.37;;;12.50;99.90;;;;;;6250336;23;20179;-91
2022/05/02 04:45:37;;;;;;;14.40;8.80;;;12.50;99.90;;;;;;6250845;23;20206;-91
2022/05/02 04:48:09;;;;;;;6.70;4.67;;;12.40;99.90;;;;;;6248971;23;20191;-91
2022/05/02 04:50:40;;;;;;;7.70;4.73;;;12.40;99.90;;;;;;6252240;23;20176;-90
2022/05/02 04:53:11;;;;;;;5.77;3.67;;;12.30;99.90;;;;;;6254345;23;20221;-91
2022/05/02 04:55:42;;;;;;;9.00;3.90;;;12.30;99.90;;;;;;6228863;23;20299;-91
2022/05/02 04:58:15;;;;;;;7.70;3.80;;;12.30;99.90;;;;;;6250974;23;20233;-91
2022/05/02 05:00:47;;;;;;;6.00;3.30;;;12.30;99.90;;;;;;6255587;23;20175;-91
2022/05/02 05:03:18;;;;;;;7.50;3.57;;;12.30;99.90;;;;;;6261978;22;20176;-90
2022/05/02 05:05:51;;;;;;;6.27;3.70;;;12.30;99.90;;;;;;6272149;22;20160;-91
2022/05/02 05:08:22;;;;;;;8.10;3.40;;;12.20;99.90;;;;;;6271106;22;20179;-91
2022/05/02 05:11:11;;;;;;;7.57;3.30;;;12.20;99.90;;;;;;6234996;22;20597;-91
2022/05/02 05:16:58;;;;;;;4.80;3.13;;;12.20;99.90;;;;;;6284841;22;20163;-90
2022/05/02 05:19:58;;;;;;;7.00;3.73;;;12.00;99.90;;;;;;6281206;22;20222;-91
2022/05/02 05:22:45;;;;;;;7.53;3.90;;;11.90;99.90;;;;;;6270215;22;20679;-91
2022/05/02 05:25:54;;;;;;;8.43;5.57;;;11.90;99.90;;;;;;6283240;22;20171;-90
2022/05/02 05:29:09;;;;;;;9.53;6.93;;;11.90;99.90;;;;;;6254322;22;20175;-90
2022/05/02 05:31:52;;;;;;;9.57;5.83;;;11.90;99.90;;;;;;6276326;22;20186;-90
2022/05/02 05:34:38;;;;;;;9.73;5.53;;;11.80;99.90;;;;;;6282783;22;20183;-90
2022/05/02 05:37:42;;;;;;;12.87;8.60;;;11.80;99.90;;;;;;6283897;22;20175;-90
2022/05/02 05:40:24;;;;;;;10.27;7.10;;;11.70;99.90;;;;;;6287186;22;20261;-90
2022/05/02 05:43:33;;;;;;;8.80;6.43;;;11.70;99.90;;;;;;6280563;22;20162;-91
2022/05/02 05:46:23;;;;;;;8.50;4.50;;;11.80;99.90;;;;;;6281974;22;20182;-90
2022/05/02 05:49:04;;;;;;;7.67;4.17;;;11.90;99.90;;;;;;6281718;22;20281;-91
2022/05/02 05:51:39;;;;;;;9.03;5.30;;;11.90;99.90;;;;;;6285136;22;20182;-91
2022/05/02 05:54:41;;;;;;;9.30;4.93;;;11.90;99.90;;;;;;6300515;22;20209;-91
2022/05/02 05:57:29;;;;;;;8.00;5.47;;;11.90;99.90;;;;;;6302351;22;20194;-91
2022/05/02 06:00:07;;;;;;;6.53;4.00;;;11.90;99.90;;;;;;6302293;22;20480;-91
2022/05/02 06:02:58;;;;;;;6.63;4.17;;;11.80;99.90;;;;;;6302676;22;20218;-90
2022/05/02 06:05:30;;;;;;;6.17;4.13;;;11.80;99.90;;;;;;6301981;22;20170;-91
2022/05/02 06:08:03;;;;;;;6.37;4.13;;;11.90;99.90;;;;;;6302348;22;20163;-91
2022/05/02 06:10:37;;;;;;;8.23;4.50;;;11.80;99.90;;;;;;6300136;22;20231;-90
2022/05/02 06:13:10;;;;;;;7.27;3.87;;;11.80;99.90;;;;;;6272638;22;20172;-90
2022/05/02 06:18:45;;;;;;;8.47;3.90;;;11.80;99.90;;;;;;6264444;22;20284;-91
2022/05/02 06:21:21;;;;;;;6.00;3.27;;;11.80;99.90;;;;;;6269102;23;20198;-91
2022/05/02 06:23:53;;;;;;;9.60;3.67;;;11.80;99.90;;;;;;6269013;22;20171;-91
2022/05/02 06:26:25;;;;;;;5.37;3.13;;;11.80;99.90;;;;;;6223374;23;20163;-93
2022/05/02 06:29:02;;;;;;;5.20;3.33;;;11.80;99.90;;;;;;6271833;22;20194;-91
2022/05/02 06:31:36;;;;;;;4.70;3.07;;;11.70;99.90;;;;;;6273240;22;20278;-92
2022/05/02 06:37:11;;;;;;;6.30;3.40;;;11.70;99.90;;;;;;6300429;22;20687;-91
2022/05/02 06:39:54;;;;;;;5.70;3.27;;;11.70;99.90;;;;;;6303213;22;20229;-92
2022/05/02 06:42:32;;;;;;;6.47;3.47;;;11.70;99.90;;;;;;6299915;22;20175;-90
2022/05/02 06:45:26;;;;;;;6.30;3.47;;;11.70;99.90;;;;;;6261944;22;20244;-91
2022/05/02 06:48:29;;;;;;;5.10;3.33;;;11.70;99.90;;;;;;6285963;22;20175;-91
2022/05/02 06:51:06;;;;;;;9.80;4.20;;;11.60;99.90;;;;;;6260658;22;20178;-91
2022/05/02 06:54:31;;;;;;;5.67;3.70;;;11.50;99.90;;;;;;6287720;22;20171;-91
2022/05/02 06:57:17;;;;;;;7.30;3.60;;;11.50;99.90;;;;;;6256003;22;20175;-92
2022/05/02 06:59:54;;;;;;;6.93;3.77;;;11.50;99.90;;;;;;6288047;22;20195;-92
2022/05/02 07:02:45;;;;;;;5.70;3.30;;;11.50;99.90;;;;;;6287655;22;20182;-91
2022/05/02 07:05:27;;;;;;;5.67;3.03;;;11.50;99.90;;;;;;6284342;22;20175;-90
2022/05/02 07:08:04;;;;;;;8.00;3.73;;;11.50;99.90;;;;;;6287116;22;20671;-91
2022/05/02 07:10:36;;;;;;;4.73;2.93;;;11.60;99.90;;;;;;6285466;22;20171;-90
2022/05/02 07:13:32;;;;;;;5.17;3.20;;;11.50;99.90;;;;;;6285366;22;20183;-90
2022/05/02 07:16:12;;;;;;;8.90;3.40;;;11.50;99.90;;;;;;6294129;22;20175;-90
2022/05/02 07:18:54;;;;;;;5.97;3.20;;;11.60;99.90;;;;;;6296425;22;20175;-90
2022/05/02 07:21:38;;;;;;;5.67;2.80;;;11.60;99.90;;;;;;6292445;22;20213;-91
2022/05/02 07:24:26;;;;;;;6.57;2.90;;;11.60;99.90;;;;;;6262952;22;20194;-90
2022/05/02 07:27:17;;;;;;;6.57;3.60;;;11.60;99.90;;;;;;6299320;22;20164;-91
2022/05/02 07:30:00;;;;;;;6.57;3.23;;;11.60;99.90;;;;;;6301532;22;20182;-91
2022/05/02 07:32:33;;;;;;;6.30;3.60;;;11.60;99.90;;;;;;6300518;22;20178;-90
2022/05/02 07:35:05;;;;;;;8.83;3.60;;;11.60;99.90;;;;;;6292976;22;20178;-90
2022/05/02 07:37:40;;;;;;;6.33;3.87;;;11.60;99.90;;;;;;6301214;22;20300;-90
2022/05/02 07:40:14;;;;;;;7.23;3.83;;;11.60;99.90;;;;;;6296793;22;20197;-90
2022/05/02 07:42:46;;;;;;;6.40;3.70;;;11.60;99.90;;;;;;6295906;22;20170;-90
2022/05/02 07:45:26;;;;;;;6.80;4.10;;;11.60;99.90;;;;;;6268062;22;20181;-91
2022/05/02 07:48:00;;;;;;;6.73;4.60;;;11.60;99.90;;;;;;6289571;22;20178;-91
2022/05/02 07:50:33;;;;;;;8.97;4.30;;;11.70;99.90;;;;;;6286926;22;20174;-90
2022/05/02 07:53:06;;;;;;;11.70;4.10;;;11.60;99.90;;;;;;6286218;22;20665;-91
2022/05/02 07:55:44;;;;;;;8.97;4.53;;;11.60;99.90;;;;;;6288090;22;20175;-91
2022/05/02 07:58:17;;;;;;;9.03;4.50;;;11.60;99.90;;;;;;6286496;22;20198;-90
2022/05/02 08:00:53;;;;;;;6.40;3.37;;;11.60;99.90;;;;;;6266597;22;20304;-91
2022/05/02 08:03:27;;;;;;;8.70;4.37;;;11.60;99.90;;;;;;6256797;22;20163;-92
2022/05/02 08:06:18;;;;;;;7.57;4.40;;;11.60;99.90;;;;;;6256092;22;20551;-91
2022/05/02 08:08:59;;;;;;;12.40;4.67;;;11.60;99.90;;;;;;6282283;22;20179;-91
2022/05/02 08:11:36;;;;;;;6.37;4.07;;;11.70;99.90;;;;;;6283610;22;20167;-91
2022/05/02 08:14:14;;;;;;;7.27;3.87;;;11.60;99.90;;;;;;6283067;22;20220;-90
2022/05/02 08:16:57;;;;;;;8.23;4.43;;;11.60;99.90;;;;;;6283070;22;20195;-91
2022/05/02 08:19:44;;;;;;;10.10;3.90;;;11.60;99.90;;;;;;6285134;22;20183;-91
2022/05/02 08:28:13;;;;;;;6.23;3.50;;;11.60;99.90;;;;;;6285652;22;20175;-91
2022/05/02 08:30:56;;;;;;;6.03;3.03;;;11.50;99.90;;;;;;6285100;22;20617;-91
2022/05/02 08:33:33;;;;;;;5.97;3.30;;;11.50;99.90;;;;;;6258720;22;20184;-90
2022/05/02 08:36:12;;;;;;;6.20;3.63;;;11.50;99.90;;;;;;6283645;22;20240;-90
2022/05/02 08:38:56;;;;;;;8.77;4.40;;;11.50;99.90;;;;;;6285499;22;20240;-90
2022/05/02 08:42:08;;;;;;;7.03;4.03;;;11.40;99.90;;;;;;6283273;22;20199;-91
2022/05/02 08:45:21;;;;;;;8.00;4.10;;;11.30;99.90;;;;;;6246782;22;20236;-91
2022/05/02 08:48:29;;;;;;;7.33;4.60;;;11.30;99.90;;;;;;6281397;22;20183;-90
2022/05/02 08:51:46;;;;;;;8.80;3.97;;;11.40;99.90;;;;;;6283287;22;20170;-90
2022/05/02 08:54:38;;;;;;;7.80;3.43;;;11.60;99.90;;;;;;6285050;22;20182;-90
2022/05/02 08:57:44;;;;;;;5.03;3.70;;;11.50;99.90;;;;;;6283233;22;20175;-91
2022/05/02 09:00:29;;;;;;;7.13;3.43;;;11.40;99.90;;;;;;6283405;22;20642;-90
2022/05/02 09:03:50;;;;;;;7.20;3.40;;;11.20;99.90;;;;;;6290329;22;20178;-90
2022/05/02 09:06:59;;;;;;;5.37;3.40;;;11.20;99.90;;;;;;6294686;22;20175;-90
2022/05/02 09:10:20;;;;;;;9.07;3.93;;;11.30;99.90;;;;;;6293550;22;20189;-90
2022/05/02 09:13:22;;;;;;;7.60;3.73;;;11.30;99.90;;;;;;6267792;22;20171;-90
2022/05/02 09:16:25;;;;;;;5.53;3.97;;;11.20;99.90;;;;;;6289713;22;20178;-90
2022/05/02 09:19:47;;;;;;;7.07;4.23;;;11.30;99.90;;;;;;6284457;22;20183;-90
2022/05/02 09:23:02;;;;;;;8.13;4.33;;;11.30;99.90;;;;;;6188240;23;20204;-90
2022/05/02 09:25:48;;;;;;;7.93;4.30;;;11.30;99.90;;;;;;6165980;23;20181;-90
2022/05/02 09:28:25;;;;;;;7.37;3.43;;;11.30;99.90;;;;;;6287340;22;20179;-89
2022/05/02 09:31:27;;;;;;;7.00;4.07;;;11.20;99.90;;;;;;6298202;22;20238;-90
2022/05/02 09:34:19;;;;;;;10.13;4.17;;;11.10;99.90;;;;;;6253822;23;20569;-90
2022/05/02 09:37:03;;;;;;;8.00;3.83;;;10.90;99.90;;;;;;6251204;23;20175;-91
2022/05/02 09:39:46;;;;;;;7.23;4.03;;;10.80;99.90;;;;;;6250054;23;20440;-91
2022/05/02 09:42:50;;;;;;;6.43;4.00;;;10.90;99.90;;;;;;6250530;23;20230;-90
2022/05/02 09:52:08;;;;;;;7.43;4.37;;;10.80;99.90;;;;;;6251527;22;20179;-91
2022/05/02 09:58:00;;;;;;;7.83;4.40;;;10.90;99.90;;;;;;6249426;22;20510;-90
2022/05/02 10:03:41;;;;;;;11.50;4.60;;;11.10;99.90;;;;;;6254970;23;20178;-90
2022/05/02 10:06:16;;;;;;;13.07;5.20;;;11.00;99.90;;;;;;6246090;23;20224;-91
2022/05/02 10:08:58;;;;;;;6.50;4.30;;;11.00;99.90;;;;;;6251739;22;20175;-91
2022/05/02 10:11:51;;;;;;;10.13;4.47;;;11.10;99.90;;;;;;6255622;23;20255;-91
2022/05/02 10:14:52;;;;;;;9.83;4.47;;;11.00;99.90;;;;;;6252539;23;20160;-90
2022/05/02 10:17:46;;;;;;;7.53;4.50;;;10.90;99.90;;;;;;6218052;22;20179;-91
2022/05/02 10:20:22;;;;;;;8.00;4.60;;;10.90;99.90;;;;;;6255110;23;20183;-90
2022/05/02 10:23:10;;;;;;;6.70;4.33;;;11.00;99.90;;;;;;6253855;23;20199;-91
2022/05/02 10:25:45;;;;;;;7.90;4.80;;;11.00;99.90;;;;;;6252423;23;20198;-91
2022/05/02 10:28:51;;;;;;;7.53;4.73;;;10.80;99.90;;;;;;6254480;22;20203;-91
2022/05/02 10:31:25;;;;;;;8.23;4.20;;;10.70;99.90;;;;;;6252662;22;20179;-90
2022/05/02 10:34:04;;;;;;;7.70;4.70;;;10.80;99.90;;;;;;6255528;22;20206;-90
2022/05/02 10:36:40;;;;;;;7.33;4.60;;;10.90;99.90;;;;;;6253006;22;20164;-90
2022/05/02 10:39:21;;;;;;;8.43;4.70;;;11.00;99.90;;;;;;6251938;23;20246;-91
2022/05/02 10:41:59;;;;;;;7.63;4.60;;;11.10;99.90;;;;;;6252267;23;20210;-90
2022/05/02 10:44:47;;;;;;;10.00;4.77;;;11.00;99.90;;;;;;6256746;22;20174;-90
2022/05/02 10:47:21;;;;;;;7.17;4.97;;;10.90;99.90;;;;;;6252040;22;20221;-90
2022/05/02 10:50:17;;;;;;;9.57;5.07;;;10.80;99.90;;;;;;6252881;23;20219;-90
2022/05/02 10:53:15;;;;;;;9.73;5.43;;;10.80;99.90;;;;;;6257733;22;20170;-91
2022/05/02 10:56:01;;;;;;;8.90;5.30;;;10.70;99.90;;;;;;6264742;22;20201;-90
2022/05/02 10:58:36;;;;;;;10.87;5.87;;;10.70;99.90;;;;;;6255675;23;20206;-88
2022/05/02 11:01:20;;;;;;;12.30;6.13;;;10.60;99.90;;;;;;6256906;22;20167;-90
2022/05/02 11:04:08;;;;;;;9.93;5.87;;;10.60;99.90;;;;;;6257203;22;20637;-90
2022/05/02 11:06:56;;;;;;;8.10;5.23;;;10.50;99.90;;;;;;6254398;22;20202;-90
2022/05/02 11:09:38;;;;;;;11.53;5.70;;;10.60;99.90;;;;;;6251344;22;20199;-90
2022/05/02 11:12:13;;;;;;;12.07;5.83;;;10.60;99.90;;;;;;6255595;23;20168;-90
2022/05/02 11:14:56;;;;;;;9.30;5.23;;;10.50;99.90;;;;;;6255607;22;20198;-91
2022/05/02 11:17:39;;;;;;;10.27;5.37;;;10.50;99.90;;;;;;6253262;22;20168;-91
2022/05/02 11:23:24;;;;;;;11.33;5.07;;;10.60;99.90;;;;;;6257331;22;20528;-90
2022/05/02 11:26:07;;;;;;;5.50;4.77;;;10.60;99.90;;;;;;6252818;22;20261;-90
2022/05/02 11:28:51;;;;;;;10.13;4.93;;;10.60;99.90;;;;;;6254534;22;20176;-90
2022/05/02 11:31:33;;;;;;;11.27;4.70;;;10.60;99.90;;;;;;6254702;22;20206;-90
2022/05/02 11:34:23;;;;;;;6.67;4.20;;;10.70;99.90;;;;;;6255764;22;20175;-90
2022/05/02 11:36:58;;;;;;;7.50;4.40;;;10.60;99.90;;;;;;6263900;23;20194;-90
2022/05/02 11:39:38;;;;;;;8.27;4.10;;;10.50;99.90;;;;;;6264944;23;20172;-90
2022/05/02 11:42:14;;;;;;;8.90;4.30;;;10.40;99.90;;;;;;6262421;23;20213;-91
2022/05/02 11:44:53;;;;;;;7.53;3.80;;;10.50;99.90;;;;;;6260039;22;20221;-90
2022/05/02 11:47:33;;;;;;;5.77;3.47;;;10.50;99.90;;;;;;6267117;23;20179;-91
2022/05/02 11:50:07;;;;;;;3.83;2.90;;;10.50;99.90;;;;;;6261753;22;20183;-89
2022/05/02 11:52:52;;;;;;;7.17;3.00;;;10.40;99.90;;;;;;6268628;22;20179;-90
2022/05/02 11:55:30;;;;;;;3.43;2.73;;;10.30;99.90;;;;;;6263920;23;20179;-90
2022/05/02 11:58:07;;;;;;;7.77;2.90;;;10.20;99.90;;;;;;6253761;23;20176;-90
2022/05/02 12:00:40;;;;;;;5.93;2.47;;;10.20;99.90;;;;;;6251801;23;20487;-90
2022/05/02 12:03:16;;;;;;;5.90;2.73;;;10.00;99.90;;;;;;6251493;23;20207;-90
2022/05/02 12:05:53;;;;;;;3.97;2.30;;;9.90;99.90;;;;;;6254325;23;20176;-90
2022/05/02 12:08:26;;;;;;;3.03;2.37;;;9.70;99.90;;;;;;6250443;22;20175;-90
2022/05/02 12:11:09;;;;;;;5.10;2.50;;;9.70;99.90;;;;;;6250668;23;20183;-89
2022/05/02 12:13:44;;;;;;;3.77;2.23;;;9.60;99.90;;;;;;6250937;23;20179;-89
2022/05/02 12:16:17;;;;;;;3.30;2.20;;;9.50;99.90;;;;;;6251455;23;20460;-90
2022/05/02 12:18:51;;;;;;;4.87;2.27;;;9.50;99.90;;;;;;6249028;23;20183;-90
2022/05/02 12:21:31;;;;;;;3.33;2.00;;;9.50;99.90;;;;;;6251396;22;20171;-89
2022/05/02 12:24:03;;;;;;;3.23;1.80;;;9.50;99.90;;;;;;6249809;23;20220;-90
2022/05/02 12:26:45;;;;;;;3.37;1.70;;;9.50;99.90;;;;;;6249114;23;20254;-90
2022/05/02 12:29:19;;;;;;;4.47;1.70;;;9.30;99.90;;;;;;6249504;23;20242;-90
2022/05/02 12:31:57;;;;;;;1.53;1.37;;;9.20;99.90;;;;;;6249784;23;20845;-89
2022/05/02 12:34:39;;;;;;;3.50;1.60;;;9.20;99.90;;;;;;6248396;23;20195;-90
2022/05/02 12:37:23;;;;;;;3.47;1.50;;;9.10;99.90;;;;;;6248683;23;20179;-90
2022/05/02 12:40:05;;;;;;;5.10;1.60;;;9.10;99.90;;;;;;6250700;23;20211;-90
2022/05/02 12:42:46;;;;;;;7.37;2.17;;;9.10;99.90;;;;;;6250997;22;20203;-89
2022/05/02 12:45:18;;;;;;;5.77;1.93;;;9.10;99.90;;;;;;6254129;22;20175;-90
2022/05/02 12:47:56;;;;;;;3.80;2.10;;;9.00;99.90;;;;;;6248462;22;20176;-90
2022/05/02 12:50:29;;;;;;;7.23;1.90;;;9.00;99.90;;;;;;6249985;22;20214;-89
2022/05/02 12:53:05;;;;;;;3.07;1.70;;;9.00;99.90;;;;;;6250162;22;20185;-89
2022/05/02 12:55:38;;;;;;;6.60;1.87;;;9.00;99.90;;;;;;6250215;22;20164;-89
2022/05/02 13:01:05;;;;;;;3.97;1.73;;;9.00;99.90;;;;;;6249820;23;20198;-89
2022/05/02 13:03:39;;;;;;;4.93;2.20;;;9.00;99.90;;;;;;6255264;22;20255;-89
2022/05/02 13:06:15;;;;;;;5.30;2.00;;;9.00;99.90;;;;;;6249147;22;20202;-90
2022/05/02 13:08:47;;;;;;;4.73;1.60;;;8.90;99.90;;;;;;6248426;23;20235;-90
2022/05/02 13:11:22;;;;;;;3.67;1.90;;;8.80;99.90;;;;;;6249635;23;20352;-89
2022/05/02 13:13:56;;;;;;;5.37;2.07;;;8.80;99.90;;;;;;6249364;22;20179;-89
2022/05/02 13:16:28;;;;;;;3.50;1.90;;;8.80;99.90;;;;;;6250227;22;20590;-89
2022/05/02 13:19:03;;;;;;;3.73;2.00;;;8.80;99.90;;;;;;6248640;22;20224;-89
2022/05/02 13:21:34;;;;;;;4.63;2.53;;;8.70;99.90;;;;;;6249265;22;20182;-89
2022/05/02 13:24:08;;;;;;;4.00;2.03;;;8.70;99.90;;;;;;6249632;22;20203;-89
2022/05/02 13:27:08;;;;;;;3.83;2.20;;;8.70;99.90;;;;;;6249422;22;20186;-88
2022/05/02 13:30:03;;;;;;;4.13;2.07;;;8.70;99.90;;;;;;6252934;22;20180;-89
2022/05/02 13:32:37;;;;;;;3.93;2.03;;;8.70;99.90;;;;;;6249805;23;20235;-89
2022/05/02 13:35:12;;;;;;;5.73;2.10;;;8.70;99.90;;;;;;6249844;23;20637;-89
2022/05/02 13:37:57;;;;;;;4.80;2.23;;;8.70;99.90;;;;;;6248702;22;20167;-89
2022/05/02 13:40:46;;;;;;;4.83;2.60;;;8.70;99.90;;;;;;6249713;23;20175;-89
2022/05/02 13:43:28;;;;;;;4.47;2.13;;;8.70;99.90;;;;;;6250221;22;20662;-89
2022/05/02 13:46:20;;;;;;;3.77;2.20;;;8.70;99.90;;;;;;6250236;22;20191;-89
2022/05/02 13:49:22;;;;;;;6.53;2.07;;;8.70;99.90;;;;;;6254529;23;20180;-89
2022/05/02 13:52:18;;;;;;;5.00;2.20;;;8.60;99.90;;;;;;6260553;22;20171;-89
2022/05/02 13:54:56;;;;;;;6.73;2.03;;;8.70;99.90;;;;;;6260173;23;20168;-88
2022/05/02 13:57:38;;;;;;;5.63;2.20;;;8.70;99.90;;;;;;6255102;22;20231;-89
2022/05/02 14:03:17;;;;;;;4.80;2.30;;;8.70;99.90;;;;;;6249405;23;20175;-88
2022/05/02 14:08:53;;;;;;;5.63;2.67;;;8.60;99.90;;;;;;6249083;22;20206;-88
2022/05/02 14:11:30;;;;;;;4.67;2.20;;;8.70;99.90;;;;;;6249537;22;20191;-88
2022/05/02 14:14:12;;;;;;;5.87;2.50;;;8.60;99.90;;;;;;6249507;23;20567;-89
2022/05/02 14:16:44;;;;;;;4.70;2.40;;;8.60;99.90;;;;;;6248995;22;20175;-89
2022/05/02 14:19:25;;;;;;;6.93;2.23;;;8.60;99.90;;;;;;6247598;23;20175;-88
2022/05/02 14:21:56;;;;;;;7.07;2.30;;;8.60;99.90;;;;;;6248796;22;20187;-89
2022/05/02 14:24:42;;;;;;;4.10;2.30;;;8.60;99.90;;;;;;6252780;22;20188;-89
2022/05/02 14:27:14;;;;;;;3.70;2.00;;;8.60;99.90;;;;;;6252530;22;20175;-87
2022/05/02 14:29:45;;;;;;;4.50;2.40;;;8.70;99.90;;;;;;6248195;23;20198;-89
2022/05/02 14:32:19;;;;;;;5.90;2.37;;;8.70;99.90;;;;;;6250496;22;20634;-89
2022/05/02 14:34:53;;;;;;;4.30;2.13;;;8.70;99.90;;;;;;6258064;23;20200;-89
2022/05/02 14:37:25;;;;;;;3.87;2.17;;;8.70;99.90;;;;;;6255765;22;20182;-89
2022/05/02 14:39:57;;;;;;;2.77;2.00;;;8.70;99.90;;;;;;6258191;22;20176;-89
2022/05/02 14:42:31;;;;;;;4.03;2.00;;;8.70;99.90;;;;;;6257552;23;20180;-89
2022/05/02 14:45:04;;;;;;;5.60;2.20;;;8.70;99.90;;;;;;6261002;23;20179;-89
2022/05/02 14:47:41;;;;;;;13.10;2.30;;;8.70;99.90;;;;;;6262675;22;20180;-89
2022/05/02 14:50:16;;;;;;;3.80;2.03;;;8.70;99.90;;;;;;6267478;23;20563;-89
2022/05/02 14:52:50;;;;;;;7.67;2.30;;;8.90;99.90;;;;;;6266277;22;20171;-89
2022/05/02 14:55:21;;;;;;;8.60;1.90;;;8.90;99.90;;;;;;6264395;22;20176;-90
2022/05/02 14:57:56;;;;;;;3.90;1.90;;;8.90;99.90;;;;;;6266103;23;20172;-90
2022/05/02 15:00:31;;;;;;;3.07;2.13;;;8.90;99.90;;;;;;6258371;23;20198;-88
2022/05/02 15:03:06;;;;;;;3.03;1.53;;;8.90;99.90;;;;;;6267114;23;20183;-88
2022/05/02 15:05:41;;;;;;;5.33;1.83;;;9.00;99.90;;;;;;6263624;23;20163;-88
2022/05/02 15:09:01;;;;;;;3.20;1.60;;;9.10;99.90;;;;;;6265477;22;20171;-89
2022/05/02 15:11:43;;;;;;;3.93;1.77;;;9.10;99.90;;;;;;6203045;23;20177;-90
2022/05/02 15:14:40;;;;;;;3.73;1.70;;;9.00;99.90;;;;;;6203862;23;20205;-89
2022/05/02 15:17:26;;;;;;;2.80;1.60;;;9.00;99.90;;;;;;6253221;22;20176;-89
2022/05/02 15:20:19;;;;;;;3.83;1.73;;;9.00;99.90;;;;;;6262640;23;20176;-89
2022/05/02 15:22:53;;;;;;;11.47;1.97;;;9.10;99.90;;;;;;6261365;23;20187;-88